Time;durP1;ratioP1;P1;durP2;ratioP2;P2;SDS_P1;SDS_P2;PMS_P1;PMS_P2;Temp;Humidity;BMP_temperature;BMP_pressure;BME280_temperature;BME280_humidity;BME280_pressure;Samples;Min_cycle;Max_cycle;Signal;HPM_P1;HPM_P2
2021/12/14 00:02:28;;;;;;;5.93;5.30;;;;;;;;;;5005670;28;20039;-62
2021/12/14 00:04:58;;;;;;;7.05;5.63;;;;;;;;;;4994048;28;20042;-61
2021/12/14 00:07:26;;;;;;;6.88;6.20;;;;;;;;;;4993738;28;20054;-62
2021/12/14 00:10:01;;;;;;;9.05;6.22;;;;;;;;;;4993953;28;20042;-62
2021/12/14 00:15:15;;;;;;;12.18;9.60;;;;;;;;;;4993922;28;20085;-62
2021/12/14 00:17:45;;;;;;;19.02;14.60;;;;;;;;;;4993501;28;20489;-62
2021/12/14 00:20:23;;;;;;;13.70;9.25;;;;;;;;;;4993766;28;20467;-63
2021/12/14 00:25:43;;;;;;;8.48;6.45;;;;;;;;;;4993619;28;20042;-61
2021/12/14 00:28:20;;;;;;;8.02;6.93;;;;;;;;;;4981110;28;20054;-62
2021/12/14 00:30:49;;;;;;;17.50;13.45;;;;;;;;;;4994133;28;20552;-62
2021/12/14 00:33:19;;;;;;;9.75;8.85;;;;;;;;;;4992951;28;20058;-62
2021/12/14 00:35:47;;;;;;;9.02;5.72;;;;;;;;;;4993650;28;20043;-62
2021/12/14 00:38:15;;;;;;;6.30;5.30;;;;;;;;;;4993615;28;20096;-62
2021/12/14 00:40:45;;;;;;;7.68;5.38;;;;;;;;;;4995915;28;20050;-63
2021/12/14 00:43:13;;;;;;;7.72;4.75;;;;;;;;;;5001520;28;20445;-63
2021/12/14 00:45:42;;;;;;;7.18;5.05;;;;;;;;;;4993329;28;20047;-63
2021/12/14 00:48:11;;;;;;;5.97;5.10;;;;;;;;;;4993271;28;20130;-63
2021/12/14 00:50:43;;;;;;;6.78;5.82;;;;;;;;;;4983404;28;20080;-62
2021/12/14 00:53:11;;;;;;;7.47;5.25;;;;;;;;;;4974236;28;20461;-63
2021/12/14 00:55:42;;;;;;;9.30;6.82;;;;;;;;;;4987288;28;20050;-63
2021/12/14 00:58:11;;;;;;;6.13;5.18;;;;;;;;;;4993129;28;20042;-63
2021/12/14 01:00:42;;;;;;;7.40;5.38;;;;;;;;;;4992915;28;20126;-63
2021/12/14 01:03:09;;;;;;;7.05;5.63;;;;;;;;;;4976013;28;20046;-63
2021/12/14 01:05:42;;;;;;;10.30;5.30;;;;;;;;;;4993178;28;20044;-62
2021/12/14 01:08:13;;;;;;;5.70;5.07;;;;;;;;;;4993670;28;20046;-64
2021/12/14 01:10:47;;;;;;;6.32;5.55;;;;;;;;;;4993316;28;20042;-63
2021/12/14 01:13:15;;;;;;;6.93;5.50;;;;;;;;;;4975580;28;20057;-62
2021/12/14 01:16:13;;;;;;;7.20;5.97;;;;;;;;;;4975595;28;20046;-62
2021/12/14 01:18:50;;;;;;;6.97;5.15;;;;;;;;;;4976163;28;20081;-63
2021/12/14 01:24:01;;;;;;;5.90;5.30;;;;;;;;;;4993006;28;20565;-62
2021/12/14 01:26:35;;;;;;;8.07;5.78;;;;;;;;;;4975283;28;20042;-62
2021/12/14 01:29:05;;;;;;;10.30;6.63;;;;;;;;;;4975665;28;20556;-61
2021/12/14 01:31:37;;;;;;;6.53;5.82;;;;;;;;;;4994359;28;20414;-63
2021/12/14 01:34:19;;;;;;;7.18;5.63;;;;;;;;;;5012169;28;20046;-63
2021/12/14 01:36:52;;;;;;;9.23;5.90;;;;;;;;;;4995100;28;20076;-63
2021/12/14 01:42:06;;;;;;;6.63;5.35;;;;;;;;;;4994576;28;20132;-62
2021/12/14 01:45:03;;;;;;;8.02;5.38;;;;;;;;;;5012095;28;20516;-62
2021/12/14 01:47:39;;;;;;;7.20;5.65;;;;;;;;;;4994252;28;20064;-63
2021/12/14 01:50:41;;;;;;;6.32;5.40;;;;;;;;;;4994208;28;20070;-62
2021/12/14 01:53:14;;;;;;;8.75;5.80;;;;;;;;;;4994617;28;20080;-63
2021/12/14 01:55:50;;;;;;;7.88;6.68;;;;;;;;;;4994278;28;20052;-62
2021/12/14 01:58:18;;;;;;;6.50;5.88;;;;;;;;;;4994830;28;20485;-62
2021/12/14 02:00:53;;;;;;;7.93;6.22;;;;;;;;;;4994229;28;20092;-62
2021/12/14 02:03:28;;;;;;;9.13;7.22;;;;;;;;;;5012078;28;20045;-63
2021/12/14 02:05:55;;;;;;;6.93;5.57;;;;;;;;;;4994103;28;20038;-61
2021/12/14 02:08:29;;;;;;;8.68;7.05;;;;;;;;;;4998393;28;20100;-61
2021/12/14 02:10:58;;;;;;;7.97;7.05;;;;;;;;;;4998131;28;20132;-61
2021/12/14 02:13:30;;;;;;;11.48;6.82;;;;;;;;;;4998290;28;20047;-60
2021/12/14 02:16:00;;;;;;;8.32;6.43;;;;;;;;;;5015677;28;20049;-60
2021/12/14 02:18:49;;;;;;;7.25;5.72;;;;;;;;;;4985456;28;20126;-60
2021/12/14 02:21:17;;;;;;;7.28;6.20;;;;;;;;;;4962032;28;20052;-61
2021/12/14 02:23:47;;;;;;;7.10;6.32;;;;;;;;;;4977810;28;20069;-61
2021/12/14 02:26:19;;;;;;;7.13;6.40;;;;;;;;;;4994517;28;20070;-63
2021/12/14 02:28:50;;;;;;;;;;;;;;;;;;4979147;28;20129;-60
2021/12/14 02:31:20;;;;;;;7.07;5.65;;;;;;;;;;4994811;28;19922;-62
2021/12/14 02:33:50;;;;;;;7.65;6.55;;;;;;;;;;4977948;28;20085;-62
2021/12/14 02:36:25;;;;;;;8.95;6.60;;;;;;;;;;4994578;28;20054;-62
2021/12/14 02:39:05;;;;;;;6.90;6.20;;;;;;;;;;4978225;28;20046;-62
2021/12/14 02:41:56;;;;;;;10.77;6.18;;;;;;;;;;4978488;28;20101;-64
2021/12/14 02:44:24;;;;;;;7.18;6.07;;;;;;;;;;4994321;28;20054;-63
2021/12/14 02:46:56;;;;;;;7.78;6.45;;;;;;;;;;4993946;28;20638;-64
2021/12/14 02:49:28;;;;;;;6.38;5.72;;;;;;;;;;4994006;28;20043;-63
2021/12/14 02:52:24;;;;;;;5.40;4.90;;;;;;;;;;4994764;28;20074;-63
2021/12/14 02:54:55;;;;;;;9.82;5.72;;;;;;;;;;4993974;28;20050;-62
2021/12/14 02:57:32;;;;;;;6.15;5.43;;;;;;;;;;4977930;28;20092;-62
2021/12/14 03:00:00;;;;;;;7.22;5.75;;;;;;;;;;4995536;28;20043;-63
2021/12/14 03:02:31;;;;;;;8.10;5.07;;;;;;;;;;4994081;28;20501;-63
2021/12/14 03:05:03;;;;;;;8.98;4.95;;;;;;;;;;4993464;28;20386;-63
2021/12/14 03:07:34;;;;;;;7.63;5.40;;;;;;;;;;4994260;28;20046;-63
2021/12/14 03:10:21;;;;;;;8.75;4.88;;;;;;;;;;4961568;28;20503;-63
2021/12/14 03:12:53;;;;;;;6.50;5.70;;;;;;;;;;4995303;28;20047;-64
2021/12/14 03:15:24;;;;;;;5.32;4.68;;;;;;;;;;4993760;28;20057;-63
2021/12/14 03:17:55;;;;;;;5.63;4.78;;;;;;;;;;4977720;28;20581;-61
2021/12/14 03:20:32;;;;;;;5.53;4.63;;;;;;;;;;4995252;28;20097;-61
2021/12/14 03:23:26;;;;;;;6.28;5.50;;;;;;;;;;4995281;28;20065;-61
2021/12/14 03:25:56;;;;;;;6.53;4.80;;;;;;;;;;4978487;28;20545;-61
2021/12/14 03:28:25;;;;;;;6.70;6.00;;;;;;;;;;4994739;28;20082;-62
2021/12/14 03:30:58;;;;;;;7.05;6.30;;;;;;;;;;4993826;28;20042;-61
2021/12/14 03:33:30;;;;;;;11.23;6.07;;;;;;;;;;4977144;28;20643;-61
2021/12/14 03:36:05;;;;;;;7.00;6.15;;;;;;;;;;4993797;28;20046;-61
2021/12/14 03:38:35;;;;;;;6.45;5.30;;;;;;;;;;4994496;28;20054;-61
2021/12/14 03:41:09;;;;;;;6.65;5.80;;;;;;;;;;4993412;28;20105;-60
2021/12/14 03:43:40;;;;;;;10.00;5.57;;;;;;;;;;4977254;28;20043;-61
2021/12/14 03:46:10;;;;;;;7.20;5.35;;;;;;;;;;4993340;28;20133;-60
2021/12/14 03:48:39;;;;;;;6.22;5.45;;;;;;;;;;4994562;28;20046;-60
2021/12/14 03:51:07;;;;;;;6.68;4.57;;;;;;;;;;4993755;28;20050;-60
2021/12/14 03:53:34;;;;;;;5.47;4.97;;;;;;;;;;4994205;28;20038;-61
2021/12/14 03:56:05;;;;;;;7.47;5.43;;;;;;;;;;4976975;28;20125;-62
2021/12/14 03:58:36;;;;;;;10.40;6.80;;;;;;;;;;4993041;28;20046;-62
2021/12/14 04:01:10;;;;;;;7.32;5.78;;;;;;;;;;4993052;28;20046;-62
2021/12/14 04:03:47;;;;;;;6.38;5.18;;;;;;;;;;4992971;28;20129;-62
2021/12/14 04:06:21;;;;;;;7.68;6.10;;;;;;;;;;4989903;28;20200;-62
2021/12/14 04:08:50;;;;;;;7.82;6.53;;;;;;;;;;4984172;28;20043;-62
2021/12/14 04:11:18;;;;;;;9.75;6.78;;;;;;;;;;4993487;28;20042;-61
2021/12/14 04:13:50;;;;;;;7.45;6.65;;;;;;;;;;4994198;28;20421;-61
2021/12/14 04:16:27;;;;;;;6.47;5.82;;;;;;;;;;4976365;28;20100;-61
2021/12/14 04:19:03;;;;;;;6.93;5.90;;;;;;;;;;4976553;28;20527;-61
2021/12/14 04:21:33;;;;;;;9.80;7.35;;;;;;;;;;4976525;28;20073;-61
2021/12/14 04:24:01;;;;;;;8.98;7.95;;;;;;;;;;4978691;28;20532;-62
2021/12/14 04:26:29;;;;;;;14.18;9.70;;;;;;;;;;4999099;23;20145;-63
2021/12/14 04:28:59;;;;;;;11.52;8.82;;;;;;;;;;5031469;28;20099;-62
2021/12/14 04:31:34;;;;;;;12.32;8.52;;;;;;;;;;5016047;28;20049;-63
2021/12/14 04:34:05;;;;;;;10.27;8.88;;;;;;;;;;5032231;28;20407;-64
2021/12/14 04:36:34;;;;;;;10.68;8.90;;;;;;;;;;5014814;28;20045;-63
2021/12/14 04:53:22;;;;;;;17.95;13.60;;;;;;;;;;5013426;28;20057;-62
2021/12/14 04:55:55;;;;;;;13.93;12.25;;;;;;;;;;5032851;28;20045;-63
2021/12/14 04:58:30;;;;;;;15.18;13.20;;;;;;;;;;5014734;28;20499;-63
2021/12/14 05:00:58;;;;;;;16.77;14.38;;;;;;;;;;4997430;28;20053;-62
2021/12/14 05:03:32;;;;;;;16.48;11.85;;;;;;;;;;5014426;28;20053;-61
2021/12/14 05:06:13;;;;;;;12.88;10.85;;;;;;;;;;5015212;28;20084;-62
2021/12/14 05:11:16;;;;;;;14.25;11.43;;;;;;;;;;5032807;28;20053;-64
2021/12/14 05:13:51;;;;;;;11.27;9.60;;;;;;;;;;5015478;28;20043;-64
2021/12/14 05:16:28;;;;;;;9.30;8.27;;;;;;;;;;5014982;28;20049;-62
2021/12/14 05:18:59;;;;;;;11.23;9.10;;;;;;;;;;5015139;28;20055;-64
2021/12/14 05:21:34;;;;;;;11.77;7.95;;;;;;;;;;5030988;28;20045;-62
2021/12/14 05:24:06;;;;;;;10.65;7.45;;;;;;;;;;4996896;28;20046;-63
2021/12/14 05:26:39;;;;;;;8.35;6.85;;;;;;;;;;5011289;28;20061;-61
2021/12/14 05:29:09;;;;;;;11.70;7.22;;;;;;;;;;5011839;28;20064;-63
2021/12/14 05:31:46;;;;;;;9.00;6.95;;;;;;;;;;5011408;28;20107;-62
2021/12/14 05:34:15;;;;;;;8.13;6.03;;;;;;;;;;5011383;28;20187;-60
2021/12/14 05:36:44;;;;;;;7.57;6.82;;;;;;;;;;5010485;28;20050;-62
2021/12/14 05:45:26;;;;;;;6.82;6.22;;;;;;;;;;5007869;28;20038;-63
2021/12/14 05:47:56;;;;;;;10.25;6.32;;;;;;;;;;5012391;28;20096;-62
2021/12/14 05:50:38;;;;;;;8.35;6.35;;;;;;;;;;5014689;28;20046;-62
2021/12/14 05:53:07;;;;;;;6.43;5.70;;;;;;;;;;5012319;28;20041;-62
2021/12/14 05:55:38;;;;;;;6.85;5.53;;;;;;;;;;5013821;28;20111;-61
2021/12/14 05:58:12;;;;;;;8.57;7.13;;;;;;;;;;5013722;28;20496;-63
2021/12/14 06:00:43;;;;;;;10.38;6.35;;;;;;;;;;5015674;28;20128;-62
2021/12/14 06:03:17;;;;;;;7.88;6.53;;;;;;;;;;5022402;28;20054;-62
2021/12/14 06:05:45;;;;;;;7.97;6.97;;;;;;;;;;5013041;28;20077;-61
2021/12/14 06:08:22;;;;;;;8.95;7.38;;;;;;;;;;5013903;28;20044;-63
2021/12/14 06:10:53;;;;;;;6.63;5.45;;;;;;;;;;5011705;28;20049;-61
2021/12/14 06:13:21;;;;;;;7.13;6.38;;;;;;;;;;5015961;28;20045;-63
2021/12/14 06:15:48;;;;;;;6.18;5.55;;;;;;;;;;5014404;28;20065;-64
2021/12/14 06:18:23;;;;;;;8.25;6.30;;;;;;;;;;5014369;28;20048;-62
2021/12/14 06:21:04;;;;;;;7.00;4.30;;;;;;;;;;5014360;28;20503;-63
2021/12/14 06:23:34;;;;;;;6.80;5.25;;;;;;;;;;5020603;28;20108;-60
2021/12/14 06:26:33;;;;;;;5.35;4.38;;;;;;;;;;5015654;28;20100;-60
2021/12/14 06:29:09;;;;;;;6.32;5.38;;;;;;;;;;5016294;28;20525;-65
2021/12/14 06:31:39;;;;;;;7.20;5.00;;;;;;;;;;5009820;28;20064;-64
2021/12/14 06:34:33;;;;;;;4.93;4.25;;;;;;;;;;5032833;28;20049;-62
2021/12/14 06:37:53;;;;;;;4.82;3.90;;;;;;;;;;5012117;28;20054;-64
2021/12/14 06:40:20;;;;;;;6.80;4.53;;;;;;;;;;5017666;28;20045;-61
2021/12/14 06:42:57;;;;;;;5.40;4.88;;;;;;;;;;5017250;28;20068;-62
2021/12/14 06:45:28;;;;;;;8.13;5.57;;;;;;;;;;5017440;28;20563;-61
2021/12/14 06:48:03;;;;;;;7.03;4.90;;;;;;;;;;5034572;28;20109;-62
2021/12/14 06:50:40;;;;;;;6.80;5.40;;;;;;;;;;5017520;28;20092;-64
2021/12/14 06:53:18;;;;;;;4.68;4.03;;;;;;;;;;5016413;28;20487;-61
2021/12/14 06:56:09;;;;;;;5.85;5.20;;;;;;;;;;5034809;28;20045;-61
2021/12/14 06:59:10;;;;;;;7.30;5.32;;;;;;;;;;5021776;28;20056;-61
2021/12/14 07:02:11;;;;;;;8.07;6.30;;;;;;;;;;4980284;28;20061;-59
2021/12/14 07:05:19;;;;;;;7.43;5.47;;;;;;;;;;5017231;28;20052;-66
2021/12/14 07:07:50;;;;;;;7.80;6.32;;;;;;;;;;5017532;28;20045;-60
2021/12/14 07:10:19;;;;;;;7.35;5.43;;;;;;;;;;5016714;28;20041;-60
2021/12/14 07:12:46;;;;;;;6.13;4.72;;;;;;;;;;5034911;28;20041;-60
2021/12/14 07:15:24;;;;;;;6.88;5.72;;;;;;;;;;5034207;28;20045;-57
2021/12/14 07:18:04;;;;;;;6.43;5.75;;;;;;;;;;5035020;28;20132;-60
2021/12/14 07:20:32;;;;;;;6.72;5.78;;;;;;;;;;5034455;28;20051;-60
2021/12/14 07:23:01;;;;;;;8.15;7.30;;;;;;;;;;5034428;28;20095;-60
2021/12/14 07:25:37;;;;;;;10.57;8.35;;;;;;;;;;5034308;28;20048;-60
2021/12/14 07:28:16;;;;;;;8.23;7.20;;;;;;;;;;5014574;28;20093;-60
2021/12/14 07:30:47;;;;;;;7.65;6.75;;;;;;;;;;5029553;28;20056;-59
2021/12/14 07:33:23;;;;;;;6.53;5.88;;;;;;;;;;5034217;28;20128;-60
2021/12/14 07:35:54;;;;;;;7.38;4.45;;;;;;;;;;5034363;28;20514;-58
2021/12/14 07:38:33;;;;;;;4.63;3.90;;;;;;;;;;5034378;28;20049;-60
2021/12/14 07:41:10;;;;;;;6.72;4.57;;;;;;;;;;5034262;28;20041;-60
2021/12/14 07:43:42;;;;;;;6.22;5.35;;;;;;;;;;5034098;28;20053;-60
2021/12/14 07:46:16;;;;;;;8.52;5.82;;;;;;;;;;5034375;28;20045;-60
2021/12/14 07:48:49;;;;;;;5.47;4.97;;;;;;;;;;5034013;28;20410;-60
2021/12/14 07:51:19;;;;;;;6.97;4.75;;;;;;;;;;5034096;28;20480;-60
2021/12/14 07:54:08;;;;;;;8.88;5.88;;;;;;;;;;5033884;28;20446;-60
2021/12/14 07:56:38;;;;;;;12.02;5.60;;;;;;;;;;5033988;28;20061;-60
2021/12/14 07:59:27;;;;;;;12.45;5.95;;;;;;;;;;5033702;28;20045;-59
2021/12/14 08:02:18;;;;;;;10.07;6.18;;;;;;;;;;5034157;28;20045;-60
2021/12/14 08:04:49;;;;;;;11.00;5.97;;;;;;;;;;5032671;28;20079;-59
2021/12/14 08:07:34;;;;;;;10.18;8.85;;;;;;;;;;5033876;28;20381;-64
2021/12/14 08:10:13;;;;;;;11.38;8.73;;;;;;;;;;5033782;28;20050;-60
2021/12/14 08:12:53;;;;;;;13.10;9.57;;;;;;;;;;5033584;28;20565;-59
2021/12/14 08:15:36;;;;;;;8.95;7.70;;;;;;;;;;5033595;28;20045;-59
2021/12/14 08:18:05;;;;;;;13.18;8.05;;;;;;;;;;5016325;28;20049;-60
2021/12/14 08:20:35;;;;;;;12.13;8.93;;;;;;;;;;5033254;28;20434;-62
2021/12/14 08:23:19;;;;;;;11.68;9.82;;;;;;;;;;5033524;28;20049;-61
2021/12/14 08:25:46;;;;;;;13.95;10.50;;;;;;;;;;5033700;28;20049;-62
2021/12/14 08:28:14;;;;;;;15.18;11.23;;;;;;;;;;5033071;28;20510;-63
2021/12/14 08:31:05;;;;;;;16.23;10.60;;;;;;;;;;5033147;28;20522;-60
2021/12/14 08:33:33;;;;;;;13.43;9.88;;;;;;;;;;5033178;28;20042;-60
2021/12/14 08:36:05;;;;;;;10.85;9.40;;;;;;;;;;5032956;28;20121;-60
2021/12/14 08:38:34;;;;;;;29.15;18.38;;;;;;;;;;5033122;28;20045;-61
2021/12/14 08:41:18;;;;;;;17.17;11.50;;;;;;;;;;5033059;28;20392;-61
2021/12/14 08:43:48;;;;;;;14.23;11.82;;;;;;;;;;5033128;28;20045;-60
2021/12/14 08:46:28;;;;;;;15.65;10.23;;;;;;;;;;5033344;28;20082;-61
2021/12/14 08:49:01;;;;;;;13.63;10.40;;;;;;;;;;5033122;28;20048;-62
2021/12/14 08:51:31;;;;;;;17.25;11.50;;;;;;;;;;5033122;28;20465;-60
2021/12/14 08:54:06;;;;;;;16.65;12.18;;;;;;;;;;5032822;28;20534;-60
2021/12/14 08:56:36;;;;;;;16.15;10.75;;;;;;;;;;5033051;28;20084;-60
2021/12/14 08:59:05;;;;;;;16.17;11.50;;;;;;;;;;5032536;28;20123;-61
2021/12/14 09:01:32;;;;;;;13.20;10.68;;;;;;;;;;5032764;28;20132;-61
2021/12/14 09:04:06;;;;;;;12.32;9.38;;;;;;;;;;5032468;28;20065;-61
2021/12/14 09:06:37;;;;;;;13.32;10.20;;;;;;;;;;5033059;28;20448;-61
2021/12/14 09:09:11;;;;;;;11.50;9.02;;;;;;;;;;5032712;28;20399;-60
2021/12/14 09:11:44;;;;;;;10.15;8.18;;;;;;;;;;5032836;28;20128;-60
2021/12/14 09:14:16;;;;;;;9.18;8.00;;;;;;;;;;5032297;28;20049;-62
2021/12/14 09:16:47;;;;;;;12.68;7.43;;;;;;;;;;5032388;28;20553;-61
2021/12/14 09:19:23;;;;;;;10.00;7.78;;;;;;;;;;5032557;28;20550;-62
2021/12/14 09:21:52;;;;;;;9.15;6.70;;;;;;;;;;5032424;28;20089;-61
2021/12/14 09:24:23;;;;;;;8.38;6.88;;;;;;;;;;5032725;28;20107;-61
2021/12/14 09:26:54;;;;;;;9.27;6.53;;;;;;;;;;5032156;28;20053;-61
2021/12/14 09:29:23;;;;;;;8.65;5.88;;;;;;;;;;5032494;28;20080;-61
2021/12/14 09:31:52;;;;;;;6.32;5.70;;;;;;;;;;5032421;28;20124;-61
2021/12/14 09:34:22;;;;;;;9.07;6.25;;;;;;;;;;5032247;28;20050;-61
2021/12/14 09:36:51;;;;;;;6.68;5.60;;;;;;;;;;5032141;28;20045;-61
2021/12/14 09:39:22;;;;;;;8.10;6.45;;;;;;;;;;5032166;28;20132;-61
2021/12/14 09:41:53;;;;;;;13.57;7.22;;;;;;;;;;5032279;28;20069;-61
2021/12/14 09:44:24;;;;;;;8.65;6.57;;;;;;;;;;5032472;28;20228;-61
2021/12/14 09:46:53;;;;;;;8.80;6.82;;;;;;;;;;5031844;28;20597;-60
2021/12/14 09:49:20;;;;;;;7.22;6.07;;;;;;;;;;5032143;28;20046;-63
2021/12/14 09:51:55;;;;;;;10.45;5.93;;;;;;;;;;5032181;28;20132;-60
2021/12/14 09:54:23;;;;;;;;;;;;;;;;;;5014995;28;20045;-60
2021/12/14 09:56:58;;;;;;;11.23;4.70;;;;;;;;;;5032443;28;19960;-59
2021/12/14 09:59:26;;;;;;;6.03;4.65;;;;;;;;;;5032167;28;20163;-60
2021/12/14 10:02:00;;;;;;;9.18;5.63;;;;;;;;;;5015032;28;20045;-60
2021/12/14 10:04:34;;;;;;;7.68;6.30;;;;;;;;;;5032240;28;20045;-60
2021/12/14 10:07:04;;;;;;;8.43;6.78;;;;;;;;;;5032411;28;20505;-60
2021/12/14 10:09:38;;;;;;;9.10;6.78;;;;;;;;;;5031973;28;20061;-60
2021/12/14 10:13:03;;;;;;;9.48;6.93;;;;;;;;;;5031979;28;20073;-60
2021/12/14 10:15:13;;;;;;;11.52;6.97;;;;;;;;;;5015294;28;20125;-61
2021/12/14 10:17:42;;;;;;;13.68;9.15;;;;;;;;;;5032122;28;20128;-61
2021/12/14 10:20:13;;;;;;;11.25;8.02;;;;;;;;;;5031946;28;20069;-61
2021/12/14 10:22:40;;;;;;;15.45;9.48;;;;;;;;;;5031883;28;20060;-61
2021/12/14 10:25:12;;;;;;;13.55;9.00;;;;;;;;;;5031792;28;20057;-61
2021/12/14 10:27:40;;;;;;;12.75;9.50;;;;;;;;;;5032985;28;20045;-61
2021/12/14 10:30:11;;;;;;;14.68;10.43;;;;;;;;;;5035501;28;20041;-62
2021/12/14 10:32:40;;;;;;;11.35;9.82;;;;;;;;;;5035650;28;20120;-62
2021/12/14 10:35:17;;;;;;;17.50;11.85;;;;;;;;;;5034895;28;20053;-61
2021/12/14 10:38:10;;;;;;;16.80;12.00;;;;;;;;;;5035250;28;20046;-61
2021/12/14 10:43:26;;;;;;;18.77;12.77;;;;;;;;;;5035221;28;20080;-61
2021/12/14 10:46:10;;;;;;;20.13;13.75;;;;;;;;;;5035374;28;20435;-60
2021/12/14 10:48:41;;;;;;;16.42;14.27;;;;;;;;;;5035552;28;20052;-61
2021/12/14 10:51:11;;;;;;;17.27;12.93;;;;;;;;;;5035014;28;20042;-62
2021/12/14 10:53:42;;;;;;;16.20;14.48;;;;;;;;;;5035312;28;20461;-63
2021/12/14 10:56:35;;;;;;;15.32;13.73;;;;;;;;;;5034979;28;20037;-62
2021/12/14 10:59:07;;;;;;;17.25;15.43;;;;;;;;;;5034995;28;20076;-62
2021/12/14 11:01:35;;;;;;;20.63;17.10;;;;;;;;;;5035136;28;20069;-62
2021/12/14 11:04:08;;;;;;;18.15;14.77;;;;;;;;;;5035000;28;20056;-61
2021/12/14 11:06:37;;;;;;;21.00;14.65;;;;;;;;;;5035179;28;20049;-62
2021/12/14 11:11:50;;;;;;;25.42;13.95;;;;;;;;;;5035497;28;20111;-62
2021/12/14 11:14:24;;;;;;;16.58;14.95;;;;;;;;;;5034358;28;20120;-62
2021/12/14 11:19:43;;;;;;;19.02;14.65;;;;;;;;;;5034709;28;20061;-62
2021/12/14 11:22:18;;;;;;;15.70;13.10;;;;;;;;;;5034716;28;20124;-62
2021/12/14 11:24:48;;;;;;;18.13;14.10;;;;;;;;;;5034566;28;20072;-62
2021/12/14 11:27:19;;;;;;;20.98;14.38;;;;;;;;;;5020683;28;20137;-62
2021/12/14 11:29:51;;;;;;;15.98;13.18;;;;;;;;;;5034127;28;20053;-62
2021/12/14 11:32:21;;;;;;;23.08;14.05;;;;;;;;;;5034591;28;20052;-62
2021/12/14 11:34:48;;;;;;;15.00;12.13;;;;;;;;;;5034042;28;20060;-62
2021/12/14 11:37:21;;;;;;;18.95;14.38;;;;;;;;;;5034840;28;20128;-62
2021/12/14 11:39:51;;;;;;;19.13;13.98;;;;;;;;;;5034808;28;20442;-62
2021/12/14 11:42:18;;;;;;;19.10;14.50;;;;;;;;;;5034174;28;20136;-61
2021/12/14 11:45:17;;;;;;;15.38;13.15;;;;;;;;;;5034387;28;20115;-62
2021/12/14 11:47:53;;;;;;;19.17;14.00;;;;;;;;;;5030670;28;20221;-62
2021/12/14 11:50:47;;;;;;;16.20;13.85;;;;;;;;;;5034204;28;20049;-62
2021/12/14 11:53:18;;;;;;;30.88;13.23;;;;;;;;;;5032142;28;20079;-62
2021/12/14 11:55:47;;;;;;;13.52;11.95;;;;;;;;;;5034375;28;20091;-62
2021/12/14 11:58:19;;;;;;;15.57;12.93;;;;;;;;;;5034121;28;20125;-61
2021/12/14 12:01:05;;;;;;;14.95;11.57;;;;;;;;;;5034316;28;20049;-62
2021/12/14 12:03:32;;;;;;;14.50;11.98;;;;;;;;;;5033663;28;20491;-62
2021/12/14 12:06:08;;;;;;;16.77;12.30;;;;;;;;;;5034255;28;20095;-61
2021/12/14 12:11:36;;;;;;;12.27;9.90;;;;;;;;;;5034019;28;20046;-62
2021/12/14 12:14:29;;;;;;;17.17;10.68;;;;;;;;;;5033657;28;20076;-62
2021/12/14 12:17:28;;;;;;;14.98;10.02;;;;;;;;;;5033712;28;20124;-61
2021/12/14 12:20:14;;;;;;;17.85;11.35;;;;;;;;;;5033618;28;20074;-62
2021/12/14 12:22:54;;;;;;;13.40;10.32;;;;;;;;;;5033851;28;20073;-62
2021/12/14 12:25:24;;;;;;;11.98;10.50;;;;;;;;;;5033164;28;20061;-62
2021/12/14 12:28:00;;;;;;;13.18;11.15;;;;;;;;;;5033261;28;20045;-62
2021/12/14 12:30:35;;;;;;;16.42;10.65;;;;;;;;;;5033070;28;20128;-61
2021/12/14 12:33:21;;;;;;;12.73;10.35;;;;;;;;;;5033329;28;20042;-61
2021/12/14 12:36:00;;;;;;;15.45;11.77;;;;;;;;;;5033264;28;20087;-61
2021/12/14 12:38:34;;;;;;;11.63;10.38;;;;;;;;;;5033696;28;20084;-60
2021/12/14 12:41:25;;;;;;;14.50;11.82;;;;;;;;;;5033158;28;20440;-61
2021/12/14 12:44:04;;;;;;;15.50;11.32;;;;;;;;;;5033330;28;20041;-61
2021/12/14 12:46:39;;;;;;;11.50;10.32;;;;;;;;;;5032909;28;20403;-61
2021/12/14 12:49:19;;;;;;;13.13;10.38;;;;;;;;;;5033031;28;20041;-61
2021/12/14 12:51:52;;;;;;;17.85;12.52;;;;;;;;;;5032644;28;20053;-61
2021/12/14 12:54:31;;;;;;;16.08;11.23;;;;;;;;;;5033140;28;20049;-59
2021/12/14 12:57:28;;;;;;;12.10;10.85;;;;;;;;;;5032892;28;20049;-60
2021/12/14 13:00:09;;;;;;;20.40;10.73;;;;;;;;;;5033089;28;20049;-61
2021/12/14 13:02:38;;;;;;;16.25;12.60;;;;;;;;;;5032690;28;20056;-61
2021/12/14 13:05:21;;;;;;;13.95;10.52;;;;;;;;;;5032917;28;20055;-60
2021/12/14 13:07:59;;;;;;;14.48;11.63;;;;;;;;;;5032395;28;20081;-62
2021/12/14 13:10:30;;;;;;;14.35;12.25;;;;;;;;;;5033200;28;20049;-60
2021/12/14 13:13:10;;;;;;;11.38;10.18;;;;;;;;;;5032695;28;20069;-60
2021/12/14 13:15:58;;;;;;;18.73;11.20;;;;;;;;;;5032778;28;20045;-60
2021/12/14 13:18:27;;;;;;;17.40;13.20;;;;;;;;;;5032468;28;20046;-59
2021/12/14 13:21:35;;;;;;;20.88;12.35;;;;;;;;;;5032783;28;20069;-58
2021/12/14 13:24:16;;;;;;;14.35;11.32;;;;;;;;;;4990659;28;20042;-57
2021/12/14 13:27:00;;;;;;;20.20;12.43;;;;;;;;;;5028423;28;20124;-59
2021/12/14 13:29:30;;;;;;;12.90;11.27;;;;;;;;;;5032233;28;20061;-59
2021/12/14 13:32:22;;;;;;;11.82;10.60;;;;;;;;;;5023468;28;20045;-58
2021/12/14 13:34:58;;;;;;;13.93;11.80;;;;;;;;;;5032219;28;20054;-57
2021/12/14 13:37:47;;;;;;;14.00;11.27;;;;;;;;;;5032286;28;20076;-57
2021/12/14 13:40:24;;;;;;;14.90;11.15;;;;;;;;;;5022867;28;20128;-62
2021/12/14 13:43:15;;;;;;;16.08;12.70;;;;;;;;;;5032479;28;20045;-62
2021/12/14 13:45:42;;;;;;;15.90;14.15;;;;;;;;;;5031958;28;20518;-62
2021/12/14 13:48:12;;;;;;;14.13;12.63;;;;;;;;;;5032592;28;20112;-62
2021/12/14 13:50:43;;;;;;;15.60;13.35;;;;;;;;;;5032189;28;20038;-61
2021/12/14 13:53:10;;;;;;;19.23;14.07;;;;;;;;;;5032350;28;20804;-62
2021/12/14 13:56:00;;;;;;;15.57;12.38;;;;;;;;;;5031759;28;20053;-60
2021/12/14 13:58:32;;;;;;;16.42;12.70;;;;;;;;;;5032250;28;20571;-58
2021/12/14 14:01:09;;;;;;;17.45;15.63;;;;;;;;;;5030009;28;20038;-58
2021/12/14 14:03:40;;;;;;;55.00;14.38;;;;;;;;;;5033442;28;20042;-58
2021/12/14 14:06:13;;;;;;;16.60;14.77;;;;;;;;;;5031305;28;20061;-58
2021/12/14 14:08:41;;;;;;;16.88;14.95;;;;;;;;;;5034946;28;20136;-59
2021/12/14 14:11:21;;;;;;;18.60;15.63;;;;;;;;;;5035327;28;20644;-60
2021/12/14 14:13:50;;;;;;;15.38;12.90;;;;;;;;;;5034223;28;20037;-58
2021/12/14 14:16:18;;;;;;;22.45;16.30;;;;;;;;;;5032118;28;20480;-59
2021/12/14 14:18:52;;;;;;;23.95;16.83;;;;;;;;;;5030735;28;20046;-58
2021/12/14 14:21:30;;;;;;;17.52;15.35;;;;;;;;;;5026020;28;20046;-58
2021/12/14 14:23:58;;;;;;;20.13;14.73;;;;;;;;;;5012744;28;20105;-58
2021/12/14 14:26:30;;;;;;;29.42;14.93;;;;;;;;;;5026982;28;20069;-58
2021/12/14 14:29:10;;;;;;;15.45;13.68;;;;;;;;;;5030000;28;20055;-58
2021/12/14 14:31:48;;;;;;;21.33;15.73;;;;;;;;;;5028266;28;20558;-58
2021/12/14 14:34:36;;;;;;;17.13;14.10;;;;;;;;;;5028020;28;20045;-58
2021/12/14 14:37:17;;;;;;;17.88;14.35;;;;;;;;;;5026837;28;20076;-59
2021/12/14 14:39:48;;;;;;;;;;;;;;;;;;5029702;28;20038;-59
2021/12/14 14:42:19;;;;;;;21.15;17.45;;;;;;;;;;5028490;28;19927;-59
2021/12/14 14:44:48;;;;;;;19.63;17.50;;;;;;;;;;5027718;28;20069;-59
2021/12/14 14:47:34;;;;;;;26.33;17.08;;;;;;;;;;5024943;28;20126;-59
2021/12/14 14:50:09;;;;;;;18.42;16.05;;;;;;;;;;5029862;28;20460;-59
2021/12/14 14:52:41;;;;;;;20.17;18.02;;;;;;;;;;5030114;28;20073;-59
2021/12/14 14:55:20;;;;;;;19.77;16.63;;;;;;;;;;5030121;28;20042;-60
2021/12/14 14:58:00;;;;;;;22.75;19.48;;;;;;;;;;5024328;28;20076;-59
2021/12/14 15:00:35;;;;;;;21.52;18.23;;;;;;;;;;5026784;28;20061;-59
2021/12/14 15:03:06;;;;;;;28.00;19.55;;;;;;;;;;5027937;28;20069;-59
2021/12/14 15:05:41;;;;;;;24.48;18.83;;;;;;;;;;5029977;28;20054;-59
2021/12/14 15:08:33;;;;;;;32.70;21.88;;;;;;;;;;5023713;28;20065;-61
2021/12/14 15:11:09;;;;;;;22.67;18.70;;;;;;;;;;5029453;28;20042;-60
2021/12/14 15:13:47;;;;;;;23.02;17.23;;;;;;;;;;5027678;28;20073;-60
2021/12/14 15:16:39;;;;;;;23.90;19.08;;;;;;;;;;5029769;28;20049;-61
2021/12/14 15:19:06;;;;;;;21.77;19.48;;;;;;;;;;5022896;28;20077;-60
2021/12/14 15:21:48;;;;;;;25.95;19.13;;;;;;;;;;5027068;28;20073;-60
2021/12/14 15:24:24;;;;;;;21.80;19.27;;;;;;;;;;5027297;28;20507;-60
2021/12/14 15:27:09;;;;;;;22.67;18.83;;;;;;;;;;5029561;28;20148;-59
2021/12/14 15:30:05;;;;;;;23.83;18.27;;;;;;;;;;5025511;28;20045;-59
2021/12/14 15:32:38;;;;;;;21.55;17.05;;;;;;;;;;5030433;28;20563;-54
2021/12/14 15:35:14;;;;;;;22.58;19.05;;;;;;;;;;5033358;28;20041;-56
2021/12/14 15:38:16;;;;;;;23.33;18.98;;;;;;;;;;5033755;28;20049;-57
2021/12/14 15:40:49;;;;;;;36.10;21.73;;;;;;;;;;5031092;28;20059;-57
2021/12/14 15:43:21;;;;;;;21.33;17.80;;;;;;;;;;5031968;28;20041;-57
2021/12/14 15:45:59;;;;;;;19.80;17.33;;;;;;;;;;5032456;28;20103;-55
2021/12/14 15:48:32;;;;;;;20.23;17.83;;;;;;;;;;5026069;28;20042;-57
2021/12/14 15:50:59;;;;;;;19.13;16.42;;;;;;;;;;5027464;28;20038;-56
2021/12/14 15:53:36;;;;;;;34.13;18.85;;;;;;;;;;5029854;28;20072;-57
2021/12/14 15:56:16;;;;;;;23.30;20.75;;;;;;;;;;5029277;28;20102;-53
2021/12/14 15:58:53;;;;;;;24.75;18.95;;;;;;;;;;5032341;28;20056;-54
2021/12/14 16:01:31;;;;;;;21.75;19.45;;;;;;;;;;5031405;28;20112;-56
2021/12/14 16:04:03;;;;;;;18.95;16.75;;;;;;;;;;5024166;28;20128;-55